Time;durP1;ratioP1;P1;durP2;ratioP2;P2;SDS_P1;SDS_P2;PMS_P1;PMS_P2;Temp;Humidity;BMP_temperature;BMP_pressure;BME280_temperature;BME280_humidity;BME280_pressure;Samples;Min_cycle;Max_cycle;Signal;HPM_P1;HPM_P2
2021/01/21 00:00:32;;;;;;;15.55;9.88;;;2.30;99.90;;;;;;1908336;75;21075;-73
2021/01/21 00:02:58;;;;;;;14.87;8.98;;;2.30;99.90;;;;;;1907966;75;21027;-72
2021/01/21 00:05:24;;;;;;;15.03;9.45;;;2.30;99.90;;;;;;1908170;74;21058;-72
2021/01/21 00:07:50;;;;;;;16.42;9.08;;;2.30;99.90;;;;;;1908045;75;21105;-72
2021/01/21 00:10:16;;;;;;;14.80;8.10;;;2.20;99.90;;;;;;1908051;75;21065;-72
2021/01/21 00:12:42;;;;;;;16.50;9.23;;;2.30;99.90;;;;;;1908095;75;21485;-72
2021/01/21 00:15:09;;;;;;;14.20;9.30;;;2.30;99.90;;;;;;1909294;74;21443;-74
2021/01/21 00:17:35;;;;;;;18.27;9.48;;;2.40;99.90;;;;;;1911476;75;21472;-72
2021/01/21 00:20:01;;;;;;;12.33;8.68;;;2.40;99.90;;;;;;1913787;74;21554;-71
2021/01/21 00:22:27;;;;;;;13.90;8.88;;;2.40;99.90;;;;;;1911834;74;21046;-71
2021/01/21 00:24:53;;;;;;;15.45;8.93;;;2.30;99.90;;;;;;1908043;75;21061;-73
2021/01/21 00:27:19;;;;;;;13.00;8.93;;;2.30;99.90;;;;;;1908075;75;21046;-73
2021/01/21 00:29:45;;;;;;;20.95;8.68;;;2.40;99.90;;;;;;1908105;74;20999;-72
2021/01/21 00:32:11;;;;;;;15.43;10.25;;;2.40;99.90;;;;;;1910259;75;21025;-73
2021/01/21 00:34:37;;;;;;;23.32;10.60;;;2.50;99.90;;;;;;1909929;75;21050;-72
2021/01/21 00:37:04;;;;;;;17.55;10.43;;;2.50;99.90;;;;;;1913429;74;21069;-72
2021/01/21 00:39:30;;;;;;;15.48;9.30;;;2.50;99.90;;;;;;1909778;74;21144;-73
2021/01/21 00:41:56;;;;;;;17.65;9.83;;;2.50;99.90;;;;;;1912652;74;21043;-73
2021/01/21 00:44:22;;;;;;;19.62;10.55;;;2.60;99.90;;;;;;1908042;75;21053;-73
2021/01/21 00:46:48;;;;;;;20.15;10.90;;;2.60;99.90;;;;;;1908030;75;21062;-71
2021/01/21 00:49:14;;;;;;;13.65;9.00;;;2.40;99.90;;;;;;1908035;75;21066;-71
2021/01/21 00:51:40;;;;;;;12.50;8.73;;;2.50;99.90;;;;;;1908043;75;21105;-71
2021/01/21 00:54:06;;;;;;;13.95;9.53;;;2.40;99.90;;;;;;1908040;75;21434;-72
2021/01/21 00:56:33;;;;;;;15.78;10.00;;;2.40;99.90;;;;;;1908042;75;21441;-72
2021/01/21 00:58:59;;;;;;;18.32;10.03;;;2.50;99.90;;;;;;1908038;75;21501;-72
2021/01/21 01:01:25;;;;;;;12.00;8.78;;;2.50;99.90;;;;;;1908120;75;21555;-71
2021/01/21 01:03:51;;;;;;;13.30;8.95;;;2.50;99.90;;;;;;1908058;75;21046;-72
2021/01/21 01:06:17;;;;;;;14.95;9.10;;;2.50;99.90;;;;;;1908014;75;21062;-71
2021/01/21 01:08:43;;;;;;;15.03;10.03;;;2.40;99.90;;;;;;1908087;75;21128;-71
2021/01/21 01:11:09;;;;;;;12.85;8.90;;;2.50;99.90;;;;;;1907930;75;21066;-71
2021/01/21 01:13:35;;;;;;;13.83;9.65;;;2.60;99.90;;;;;;1908044;74;21123;-71
2021/01/21 01:16:02;;;;;;;12.80;8.28;;;2.60;99.90;;;;;;1908047;74;21054;-72
2021/01/21 01:18:28;;;;;;;12.23;9.00;;;2.70;99.90;;;;;;1908033;75;21147;-72
2021/01/21 01:20:54;;;;;;;13.93;8.75;;;2.80;99.90;;;;;;1908055;75;21061;-71
2021/01/21 01:23:20;;;;;;;16.20;9.18;;;2.70;99.90;;;;;;1908053;75;21522;-72
2021/01/21 01:25:46;;;;;;;10.93;8.55;;;2.80;99.90;;;;;;1908023;74;21476;-73
2021/01/21 01:28:12;;;;;;;20.88;9.55;;;2.80;99.90;;;;;;1907999;74;21489;-73
2021/01/21 01:30:38;;;;;;;10.13;8.00;;;2.80;99.90;;;;;;1907903;74;21025;-72
2021/01/21 01:33:04;;;;;;;12.88;7.92;;;2.80;99.90;;;;;;1908139;75;21054;-72
2021/01/21 01:35:30;;;;;;;13.72;7.62;;;2.80;99.90;;;;;;1907949;75;21070;-72
2021/01/21 01:37:57;;;;;;;12.68;7.75;;;2.80;99.90;;;;;;1908126;75;21034;-73
2021/01/21 01:40:23;;;;;;;10.85;6.95;;;2.90;99.90;;;;;;1908001;75;21058;-71
2021/01/21 01:42:49;;;;;;;11.22;6.60;;;3.00;99.90;;;;;;1908067;75;21018;-71
2021/01/21 01:45:15;;;;;;;10.35;6.85;;;3.00;99.90;;;;;;1908134;75;21062;-72
2021/01/21 01:47:41;;;;;;;16.50;8.33;;;3.00;99.90;;;;;;1908140;74;21049;-71
2021/01/21 01:50:07;;;;;;;10.38;7.55;;;3.00;99.90;;;;;;1908097;75;21054;-72
2021/01/21 01:52:33;;;;;;;15.13;7.90;;;3.00;99.90;;;;;;1908130;75;21031;-71
2021/01/21 01:54:59;;;;;;;11.38;7.60;;;3.00;99.90;;;;;;1908021;75;21057;-71
2021/01/21 01:57:26;;;;;;;14.30;7.47;;;3.00;99.90;;;;;;1908002;74;21111;-71
2021/01/21 01:59:52;;;;;;;13.38;6.90;;;3.10;99.90;;;;;;1908007;75;21066;-71
2021/01/21 02:02:18;;;;;;;6.03;5.33;;;3.10;99.90;;;;;;1908127;74;21454;-72
2021/01/21 02:04:44;;;;;;;10.90;5.83;;;3.00;99.90;;;;;;1908218;75;21502;-71
2021/01/21 02:07:10;;;;;;;12.30;6.87;;;3.10;99.90;;;;;;1907983;75;21534;-72
2021/01/21 02:09:36;;;;;;;9.15;5.47;;;3.00;99.90;;;;;;1908021;75;21054;-71
2021/01/21 02:12:02;;;;;;;13.13;6.55;;;3.00;99.90;;;;;;1907961;75;21140;-73
2021/01/21 02:14:28;;;;;;;11.40;5.53;;;3.00;99.90;;;;;;1907937;75;21148;-72
2021/01/21 02:16:55;;;;;;;9.83;5.28;;;3.00;99.90;;;;;;1908049;75;21061;-71
2021/01/21 02:19:21;;;;;;;16.80;6.15;;;3.00;99.90;;;;;;1908008;75;21109;-71
2021/01/21 02:21:47;;;;;;;9.55;5.20;;;3.20;99.90;;;;;;1908113;75;21030;-72
2021/01/21 02:24:13;;;;;;;9.33;5.33;;;3.20;99.90;;;;;;1907873;75;21053;-72
2021/01/21 02:26:39;;;;;;;17.35;5.40;;;3.20;99.90;;;;;;1907525;75;21061;-71
2021/01/21 02:29:05;;;;;;;10.38;5.10;;;3.10;99.90;;;;;;1907405;75;21053;-72
2021/01/21 02:31:31;;;;;;;12.18;5.08;;;3.10;99.90;;;;;;1907504;75;21054;-72
2021/01/21 02:33:57;;;;;;;8.60;5.08;;;3.00;99.90;;;;;;1907407;75;21061;-72
2021/01/21 02:36:24;;;;;;;8.20;4.95;;;3.10;99.90;;;;;;1907387;75;21030;-71
2021/01/21 02:38:50;;;;;;;8.20;5.47;;;3.10;99.90;;;;;;1907606;75;21143;-72
2021/01/21 02:41:16;;;;;;;7.10;4.85;;;3.20;99.90;;;;;;1907319;74;21031;-72
2021/01/21 02:43:42;;;;;;;11.00;5.65;;;3.20;99.90;;;;;;1907534;75;21104;-72
2021/01/21 02:46:08;;;;;;;12.35;4.87;;;3.30;99.90;;;;;;1907511;74;21108;-73
2021/01/21 02:48:34;;;;;;;14.07;5.50;;;3.30;99.90;;;;;;1909617;75;21131;-72
2021/01/21 02:51:00;;;;;;;8.03;4.72;;;3.20;99.90;;;;;;1907593;75;21182;-72
2021/01/21 02:53:27;;;;;;;7.67;5.12;;;3.20;99.90;;;;;;1909610;74;21502;-72
2021/01/21 02:55:53;;;;;;;11.63;5.70;;;3.10;99.90;;;;;;1907560;75;21501;-73
2021/01/21 02:58:19;;;;;;;8.88;5.03;;;3.10;99.90;;;;;;1907288;75;21054;-73
2021/01/21 03:00:45;;;;;;;10.13;5.00;;;3.10;99.90;;;;;;1907407;75;21026;-72
2021/01/21 03:03:12;;;;;;;14.43;5.95;;;3.20;99.90;;;;;;1907341;75;21144;-72
2021/01/21 03:05:39;;;;;;;15.75;5.28;;;3.10;99.90;;;;;;1907429;75;21038;-73
2021/01/21 03:08:05;;;;;;;14.45;8.03;;;3.10;99.90;;;;;;1907336;75;21046;-72
2021/01/21 03:10:31;;;;;;;14.35;7.10;;;3.20;99.90;;;;;;1907296;75;21166;-72
2021/01/21 03:12:57;;;;;;;20.77;7.83;;;3.30;99.90;;;;;;1907306;75;21120;-73
2021/01/21 03:15:23;;;;;;;11.12;7.83;;;3.30;99.90;;;;;;1909340;74;21136;-73
2021/01/21 03:17:49;;;;;;;12.30;6.80;;;3.30;99.90;;;;;;1907399;74;21054;-72
2021/01/21 03:20:15;;;;;;;9.58;6.83;;;3.40;99.90;;;;;;1907358;75;21030;-72
2021/01/21 03:22:41;;;;;;;12.55;6.53;;;3.30;99.90;;;;;;1907386;75;21050;-72
2021/01/21 03:25:08;;;;;;;15.63;6.70;;;3.30;99.90;;;;;;1907437;75;21046;-72
2021/01/21 03:27:34;;;;;;;8.48;5.78;;;3.20;99.90;;;;;;1907461;75;21054;-72
2021/01/21 03:30:00;;;;;;;10.85;6.45;;;3.20;99.90;;;;;;1907577;75;21143;-71
2021/01/21 03:32:26;;;;;;;8.63;6.03;;;3.10;99.90;;;;;;1907698;75;21480;-72
2021/01/21 03:34:52;;;;;;;8.95;6.03;;;3.10;99.90;;;;;;1907700;74;21395;-72
2021/01/21 03:37:18;;;;;;;9.88;6.72;;;3.20;99.90;;;;;;1907462;75;21483;-72
2021/01/21 03:39:44;;;;;;;10.45;7.20;;;3.10;99.90;;;;;;1907547;74;21127;-72
2021/01/21 03:42:10;;;;;;;12.58;7.62;;;3.20;99.90;;;;;;1907353;75;21101;-71
2021/01/21 03:44:36;;;;;;;12.58;8.08;;;3.20;99.90;;;;;;1907504;75;21198;-71
2021/01/21 03:47:03;;;;;;;10.60;6.85;;;3.30;99.90;;;;;;1907410;74;21123;-72
2021/01/21 03:49:29;;;;;;;10.88;7.75;;;3.20;99.90;;;;;;1907640;75;21123;-72
2021/01/21 03:51:55;;;;;;;12.15;7.42;;;3.20;99.90;;;;;;1907672;75;21079;-72
2021/01/21 03:54:21;;;;;;;11.12;7.33;;;3.30;99.90;;;;;;1907608;75;21192;-71
2021/01/21 03:56:47;;;;;;;8.60;6.85;;;3.30;99.90;;;;;;1907659;75;21094;-71
2021/01/21 03:59:13;;;;;;;17.85;8.55;;;3.20;99.90;;;;;;1907416;75;21053;-71
2021/01/21 04:01:39;;;;;;;10.08;7.40;;;3.20;99.90;;;;;;1907427;74;21135;-73
2021/01/21 04:04:05;;;;;;;13.70;6.97;;;3.10;99.90;;;;;;1907399;75;21062;-71
2021/01/21 04:06:32;;;;;;;12.20;7.42;;;3.20;99.90;;;;;;1907419;75;21062;-72
2021/01/21 04:08:58;;;;;;;10.43;6.65;;;3.20;99.90;;;;;;1907423;75;21580;-72
2021/01/21 04:11:24;;;;;;;11.25;7.30;;;3.20;99.90;;;;;;1907442;75;21500;-70
2021/01/21 04:13:50;;;;;;;13.32;6.65;;;3.00;99.90;;;;;;1907513;75;21482;-71
2021/01/21 04:16:16;;;;;;;10.80;6.05;;;3.10;99.90;;;;;;1907449;75;21360;-72
2021/01/21 04:18:42;;;;;;;10.65;7.03;;;3.10;99.90;;;;;;1907438;75;21034;-73
2021/01/21 04:21:08;;;;;;;10.18;6.60;;;3.00;99.90;;;;;;1907461;75;21062;-72
2021/01/21 04:23:35;;;;;;;10.95;6.65;;;3.00;99.90;;;;;;1907369;75;21128;-73
2021/01/21 04:26:02;;;;;;;8.70;5.97;;;3.00;99.90;;;;;;1907587;75;21147;-72
2021/01/21 04:28:28;;;;;;;10.10;6.00;;;3.10;99.90;;;;;;1907459;75;21489;-73
2021/01/21 04:30:54;;;;;;;7.45;5.45;;;3.10;99.90;;;;;;1907588;75;21437;-72
2021/01/21 04:33:20;;;;;;;11.78;5.15;;;3.10;99.90;;;;;;1907702;75;21046;-72
2021/01/21 04:35:46;;;;;;;8.23;4.75;;;3.10;99.90;;;;;;1907581;75;21179;-73
2021/01/21 04:38:12;;;;;;;7.83;4.95;;;3.00;99.90;;;;;;1907500;75;21031;-72
2021/01/21 04:40:38;;;;;;;8.28;3.83;;;3.00;99.90;;;;;;1907514;75;21050;-72
2021/01/21 04:43:04;;;;;;;9.43;5.10;;;3.20;99.90;;;;;;1907687;75;21059;-73
2021/01/21 04:45:31;;;;;;;6.70;3.92;;;3.10;99.90;;;;;;1907565;74;21171;-72
2021/01/21 04:47:57;;;;;;;5.05;3.67;;;3.20;99.90;;;;;;1907661;75;21059;-72
2021/01/21 04:50:23;;;;;;;4.30;3.12;;;3.20;99.90;;;;;;1907518;74;21073;-73
2021/01/21 04:52:49;;;;;;;16.30;4.58;;;3.20;99.90;;;;;;1907575;75;21139;-72
2021/01/21 04:55:15;;;;;;;4.72;2.85;;;3.40;99.90;;;;;;1907561;74;21039;-72
2021/01/21 04:57:43;;;;;;;10.03;3.70;;;3.50;99.90;;;;;;1907527;75;21148;-72
2021/01/21 05:00:09;;;;;;;5.60;3.90;;;3.60;99.90;;;;;;1907508;74;21139;-72
2021/01/21 05:02:38;;;;;;;9.23;4.78;;;3.60;99.90;;;;;;1907592;74;21062;-72
2021/01/21 05:05:04;;;;;;;6.22;4.83;;;3.60;99.90;;;;;;1907482;75;21201;-72
2021/01/21 05:07:30;;;;;;;10.23;5.37;;;3.60;99.90;;;;;;1907420;75;21135;-71
2021/01/21 05:09:56;;;;;;;13.85;5.87;;;3.50;99.90;;;;;;1907500;75;21026;-73
2021/01/21 05:12:22;;;;;;;8.15;5.20;;;3.50;99.90;;;;;;1907475;75;21038;-72
2021/01/21 05:14:49;;;;;;;7.75;4.83;;;3.50;99.90;;;;;;1907476;75;21434;-73
2021/01/21 05:17:15;;;;;;;12.20;4.85;;;3.50;99.90;;;;;;1907427;74;21555;-73
2021/01/21 05:19:41;;;;;;;11.12;5.25;;;3.50;99.90;;;;;;1907503;75;21167;-72
2021/01/21 05:22:07;;;;;;;8.20;4.42;;;3.50;99.90;;;;;;1907491;75;21046;-72
2021/01/21 05:24:33;;;;;;;8.10;4.90;;;3.50;99.90;;;;;;1907506;75;21018;-73
2021/01/21 05:26:59;;;;;;;13.03;4.37;;;3.40;99.90;;;;;;1907529;75;21057;-73
2021/01/21 05:29:25;;;;;;;9.58;4.92;;;3.40;99.90;;;;;;1907688;74;21119;-72
2021/01/21 05:31:52;;;;;;;7.03;4.08;;;3.50;99.90;;;;;;1907405;75;21061;-72
2021/01/21 05:34:18;;;;;;;8.20;4.40;;;3.40;99.90;;;;;;1907576;75;21026;-72
2021/01/21 05:36:44;;;;;;;6.83;4.00;;;3.60;99.90;;;;;;1907487;75;21050;-73
2021/01/21 05:39:10;;;;;;;12.88;4.05;;;3.60;99.90;;;;;;1907537;75;21521;-72
2021/01/21 05:41:36;;;;;;;5.70;3.70;;;3.70;99.90;;;;;;1907521;74;21523;-71
2021/01/21 05:44:02;;;;;;;5.58;3.58;;;3.80;99.90;;;;;;1907663;74;21571;-73
2021/01/21 05:46:28;;;;;;;6.03;3.17;;;3.90;99.90;;;;;;1907839;75;21055;-73
2021/01/21 05:48:54;;;;;;;1.98;1.55;;;4.10;99.90;;;;;;1907746;75;21025;-71
2021/01/21 05:51:21;;;;;;;6.70;2.40;;;4.40;99.90;;;;;;1907951;75;21175;-72
2021/01/21 05:53:47;;;;;;;3.00;1.95;;;4.60;99.90;;;;;;1911040;72;21021;-73
2021/01/21 05:56:13;;;;;;;4.15;1.65;;;4.80;99.90;;;;;;1911240;72;21123;-72
2021/01/21 05:58:39;;;;;;;1.30;1.20;;;5.00;99.90;;;;;;1911016;75;21002;-73
2021/01/21 06:01:06;;;;;;;6.08;0.57;;;5.60;99.90;;;;;;1909424;75;21022;-71
2021/01/21 06:03:32;;;;;;;4.30;1.02;;;6.00;99.90;;;;;;1907656;75;21057;-72
2021/01/21 06:05:58;;;;;;;1.80;0.85;;;6.40;99.90;;;;;;1907718;75;21054;-73
2021/01/21 06:08:24;;;;;;;1.32;1.00;;;6.60;99.90;;;;;;1907533;75;21115;-72
2021/01/21 06:10:51;;;;;;;1.57;0.70;;;6.70;99.90;;;;;;1907520;74;21085;-72
2021/01/21 06:13:17;;;;;;;0.60;0.60;;;6.90;99.90;;;;;;1907416;75;21540;-73
2021/01/21 06:15:43;;;;;;;1.10;0.50;;;7.10;99.90;;;;;;1907578;75;21035;-72
2021/01/21 06:18:09;;;;;;;1.65;0.70;;;7.10;99.90;;;;;;1907404;74;21140;-72
2021/01/21 06:20:35;;;;;;;1.12;0.70;;;7.20;99.90;;;;;;1907379;75;21053;-72
2021/01/21 06:23:01;;;;;;;0.35;0.35;;;7.40;99.90;;;;;;1907415;75;21038;-72
2021/01/21 06:25:28;;;;;;;0.80;0.50;;;7.30;99.90;;;;;;1907509;75;21046;-72
2021/01/21 06:27:54;;;;;;;0.50;0.50;;;7.30;99.90;;;;;;1907330;75;21050;-73
2021/01/21 06:30:20;;;;;;;6.05;0.45;;;7.40;99.90;;;;;;1907454;75;21067;-72
2021/01/21 06:32:46;;;;;;;1.20;0.60;;;7.90;99.90;;;;;;1907651;75;21078;-73
2021/01/21 06:35:12;;;;;;;1.52;0.78;;;8.20;99.90;;;;;;1907659;75;21445;-73
2021/01/21 06:37:38;;;;;;;1.45;0.47;;;8.30;99.90;;;;;;1907817;75;21497;-72
2021/01/21 06:40:04;;;;;;;0.40;0.40;;;8.30;99.90;;;;;;1907551;75;21055;-73
2021/01/21 06:42:31;;;;;;;1.10;0.50;;;8.40;99.90;;;;;;1907674;74;21167;-71
2021/01/21 06:44:57;;;;;;;1.47;0.80;;;8.30;99.90;;;;;;1910006;75;21068;-66
2021/01/21 06:47:23;;;;;;;2.12;0.47;;;8.40;99.90;;;;;;1910026;75;21131;-68
2021/01/21 06:49:49;;;;;;;0.47;0.42;;;8.30;99.90;;;;;;1910095;75;21050;-70
2021/01/21 06:52:15;;;;;;;0.65;0.47;;;8.30;99.90;;;;;;1910108;75;21018;-67
2021/01/21 06:54:41;;;;;;;0.50;0.50;;;8.40;99.90;;;;;;1908960;75;21050;-71
2021/01/21 06:57:07;;;;;;;1.12;0.57;;;8.40;99.90;;;;;;1907503;75;21050;-71
2021/01/21 06:59:33;;;;;;;1.70;1.00;;;8.50;99.90;;;;;;1907486;74;21140;-72
2021/01/21 07:02:00;;;;;;;0.57;0.57;;;8.50;99.90;;;;;;1907316;75;21050;-72
2021/01/21 07:04:27;;;;;;;1.05;0.55;;;8.50;99.90;;;;;;1907533;75;21049;-71
2021/01/21 07:06:53;;;;;;;0.40;0.40;;;8.70;99.90;;;;;;1907384;75;21514;-73
2021/01/21 07:09:19;;;;;;;1.12;0.50;;;8.80;99.90;;;;;;1907477;74;21470;-73
2021/01/21 07:11:45;;;;;;;0.95;0.55;;;9.30;99.90;;;;;;1907382;75;21505;-73
2021/01/21 07:14:12;;;;;;;1.02;0.62;;;9.40;99.90;;;;;;1907492;75;21179;-72
2021/01/21 07:16:39;;;;;;;0.30;0.30;;;9.70;99.90;;;;;;1907389;75;21054;-73
2021/01/21 07:19:05;;;;;;;0.40;0.37;;;9.90;99.90;;;;;;1909725;74;21070;-72
2021/01/21 07:21:32;;;;;;;0.40;0.40;;;10.30;99.90;;;;;;1907318;75;21136;-78
2021/01/21 07:23:58;;;;;;;12.33;1.05;;;10.40;99.90;;;;;;1907590;75;21066;-76
2021/01/21 07:26:25;;;;;;;0.68;0.30;;;10.40;99.90;;;;;;1909855;75;21066;-77
2021/01/21 07:28:51;;;;;;;0.37;0.37;;;10.60;99.90;;;;;;1907535;75;21062;-76
2021/01/21 07:31:18;;;;;;;0.40;0.40;;;10.40;99.90;;;;;;1907583;74;21058;-76
2021/01/21 07:33:45;;;;;;;0.62;0.35;;;10.50;99.90;;;;;;1907743;75;21053;-77
2021/01/21 07:36:11;;;;;;;0.80;0.47;;;10.60;99.90;;;;;;1907719;75;21112;-79
2021/01/21 07:38:37;;;;;;;0.20;0.20;;;10.60;99.90;;;;;;1910355;74;21147;-77
2021/01/21 07:41:03;;;;;;;0.30;0.30;;;10.70;99.90;;;;;;1909566;75;21042;-78
2021/01/21 07:43:29;;;;;;;0.60;0.50;;;10.70;99.90;;;;;;1907706;75;21073;-78
2021/01/21 07:45:55;;;;;;;0.85;0.47;;;10.60;99.90;;;;;;1907524;75;21136;-78
2021/01/21 07:48:22;;;;;;;0.53;0.30;;;10.50;99.90;;;;;;1910057;74;21039;-76
2021/01/21 07:50:48;;;;;;;6.25;0.78;;;10.40;99.90;;;;;;1907426;75;21141;-76
2021/01/21 07:53:14;;;;;;;0.30;0.30;;;10.30;99.90;;;;;;1907752;75;21143;-78
2021/01/21 07:55:40;;;;;;;0.72;0.33;;;10.10;99.90;;;;;;1915152;74;21461;-76
2021/01/21 07:58:06;;;;;;;0.65;0.60;;;10.00;99.90;;;;;;1911923;75;21463;-76
2021/01/21 08:00:32;;;;;;;1.22;0.42;;;10.10;99.90;;;;;;1909676;74;21481;-75
2021/01/21 08:02:58;;;;;;;1.05;0.65;;;10.00;99.90;;;;;;1909898;74;21501;-76
2021/01/21 08:05:25;;;;;;;0.53;0.40;;;9.90;99.90;;;;;;1907716;75;21450;-76
2021/01/21 08:07:51;;;;;;;0.62;0.30;;;9.90;99.90;;;;;;1907435;75;21170;-76
2021/01/21 08:10:19;;;;;;;0.90;0.53;;;9.80;99.90;;;;;;1907498;75;21057;-76
2021/01/21 08:12:45;;;;;;;1.37;0.60;;;9.80;99.90;;;;;;1907838;75;21127;-77
2021/01/21 08:15:11;;;;;;;0.62;0.50;;;9.90;99.90;;;;;;1907525;75;21092;-77
2021/01/21 08:17:37;;;;;;;0.50;0.30;;;10.00;99.90;;;;;;1907621;75;21042;-76
2021/01/21 08:20:03;;;;;;;0.65;0.40;;;10.00;99.90;;;;;;1907466;75;21046;-78
2021/01/21 08:22:29;;;;;;;6.33;0.50;;;10.10;99.90;;;;;;1907518;74;21050;-78
2021/01/21 08:24:55;;;;;;;0.80;0.50;;;10.30;99.90;;;;;;1907676;75;21073;-75
2021/01/21 08:27:21;;;;;;;0.42;0.40;;;10.40;99.90;;;;;;1908160;75;21104;-78
2021/01/21 08:29:48;;;;;;;0.85;0.35;;;10.50;99.90;;;;;;1908047;74;21045;-80
2021/01/21 08:32:14;;;;;;;1.12;0.35;;;10.80;99.90;;;;;;1908032;74;21117;-76
2021/01/21 08:34:40;;;;;;;0.53;0.35;;;11.00;99.90;;;;;;1908068;75;21036;-75
2021/01/21 08:37:06;;;;;;;0.15;0.15;;;11.20;99.90;;;;;;1907882;75;21046;-74
2021/01/21 08:39:32;;;;;;;0.40;0.30;;;11.30;99.90;;;;;;1908172;75;21062;-77
2021/01/21 08:41:58;;;;;;;0.30;0.20;;;11.40;99.90;;;;;;1908050;74;21123;-76
2021/01/21 08:44:24;;;;;;;1.17;0.28;;;11.60;99.90;;;;;;1908085;74;21046;-75
2021/01/21 08:46:50;;;;;;;2.30;0.33;;;11.60;99.90;;;;;;1907955;75;21057;-74
2021/01/21 08:49:16;;;;;;;1.30;0.20;;;11.70;99.90;;;;;;1908077;75;21446;-74
2021/01/21 08:51:44;;;;;;;0.30;0.30;;;11.70;99.90;;;;;;1908010;75;21473;-75
2021/01/21 08:54:10;;;;;;;0.53;0.30;;;11.90;99.90;;;;;;1907998;75;21035;-73
2021/01/21 08:56:37;;;;;;;0.20;0.20;;;11.90;99.90;;;;;;1908115;75;21119;-76
2021/01/21 08:59:05;;;;;;;0.10;0.10;;;11.80;99.90;;;;;;1907849;75;21132;-75
2021/01/21 09:01:30;;;;;;;0.20;0.20;;;12.10;99.90;;;;;;1907971;75;21079;-74
2021/01/21 09:03:57;;;;;;;7.92;0.82;;;12.10;99.90;;;;;;1908219;75;21071;-74
2021/01/21 09:06:23;;;;;;;3.40;0.30;;;12.10;99.90;;;;;;1908112;75;21067;-76
2021/01/21 09:08:50;;;;;;;0.20;0.20;;;12.20;99.90;;;;;;1908110;75;21520;-75
2021/01/21 09:11:16;;;;;;;0.10;0.10;;;12.10;99.90;;;;;;1907994;75;21050;-74
2021/01/21 09:13:42;;;;;;;1.30;0.30;;;12.40;99.90;;;;;;1908141;74;21089;-78
2021/01/21 09:16:10;;;;;;;5.37;0.53;;;12.60;99.90;;;;;;1908112;75;21111;-72
2021/01/21 09:18:36;;;;;;;0.57;0.20;;;12.80;99.90;;;;;;1907990;75;21074;-72
2021/01/21 09:21:02;;;;;;;3.22;0.50;;;13.00;99.90;;;;;;1908209;75;21137;-75
2021/01/21 09:23:28;;;;;;;0.23;0.23;;;13.10;99.90;;;;;;1907990;75;21027;-73
2021/01/21 09:25:55;;;;;;;0.42;0.20;;;13.30;99.90;;;;;;1908087;75;21034;-74
2021/01/21 09:28:21;;;;;;;0.28;0.28;;;13.30;99.90;;;;;;1907944;75;21136;-74
2021/01/21 09:30:47;;;;;;;0.17;0.17;;;13.30;99.90;;;;;;1908021;75;21054;-74
2021/01/21 09:33:13;;;;;;;0.25;0.25;;;13.40;99.90;;;;;;1908006;75;21054;-74
2021/01/21 09:35:41;;;;;;;0.15;0.15;;;13.50;99.90;;;;;;1908123;75;21043;-74
2021/01/21 09:38:08;;;;;;;1.35;0.33;;;13.50;99.90;;;;;;1908039;75;21583;-74
2021/01/21 09:40:34;;;;;;;1.07;0.13;;;13.60;99.90;;;;;;1908061;75;21470;-73
2021/01/21 09:43:01;;;;;;;0.25;0.23;;;14.00;99.90;;;;;;1907854;75;21054;-74
2021/01/21 09:45:27;;;;;;;1.65;0.10;;;14.10;99.90;;;;;;1907977;75;21046;-73
2021/01/21 09:47:53;;;;;;;0.95;0.35;;;14.00;99.90;;;;;;1907899;75;21031;-74
2021/01/21 09:50:19;;;;;;;0.20;0.20;;;13.50;99.90;;;;;;1907856;75;21046;-74
2021/01/21 09:52:45;;;;;;;0.20;0.20;;;13.30;99.90;;;;;;1907960;75;21128;-74
2021/01/21 09:55:11;;;;;;;0.33;0.17;;;13.30;99.90;;;;;;1908091;75;21046;-74
2021/01/21 09:57:39;;;;;;;0.45;0.23;;;13.20;99.90;;;;;;1908015;75;21535;-74
2021/01/21 10:00:05;;;;;;;4.53;0.45;;;13.70;99.90;;;;;;1908083;75;21034;-77
2021/01/21 10:02:31;;;;;;;0.35;0.20;;;13.70;99.90;;;;;;1912623;74;21062;-75
2021/01/21 10:04:57;;;;;;;2.80;0.23;;;13.80;99.90;;;;;;1908032;75;21474;-76
2021/01/21 10:07:23;;;;;;;0.20;0.20;;;14.00;99.90;;;;;;1907785;75;21579;-74
2021/01/21 10:09:50;;;;;;;0.90;0.30;;;14.20;99.90;;;;;;1908078;74;21053;-76
2021/01/21 10:12:16;;;;;;;0.75;0.30;;;14.30;99.90;;;;;;1907868;75;21057;-73
2021/01/21 10:14:42;;;;;;;0.20;0.10;;;14.50;99.90;;;;;;1908078;75;21057;-74
2021/01/21 10:17:09;;;;;;;0.40;0.20;;;14.50;99.90;;;;;;1907981;75;21080;-74
2021/01/21 10:19:35;;;;;;;0.33;0.25;;;14.60;99.90;;;;;;1907958;75;21070;-75
2021/01/21 10:22:01;;;;;;;0.30;0.30;;;14.10;99.90;;;;;;1908615;75;21058;-75
2021/01/21 10:24:27;;;;;;;1.02;0.40;;;13.80;99.90;;;;;;1910038;75;21124;-76
2021/01/21 10:26:53;;;;;;;0.10;0.10;;;13.70;99.90;;;;;;1907863;74;21077;-76
2021/01/21 10:29:19;;;;;;;0.80;0.30;;;14.20;99.90;;;;;;1907962;75;21108;-75
2021/01/21 10:31:45;;;;;;;2.55;0.20;;;14.50;99.90;;;;;;1907909;75;21061;-72
2021/01/21 10:34:12;;;;;;;0.40;0.40;;;14.20;99.90;;;;;;1907902;75;21027;-74
2021/01/21 10:36:38;;;;;;;1.00;0.30;;;14.10;99.90;;;;;;1912680;74;21135;-75
2021/01/21 10:39:04;;;;;;;0.40;0.13;;;14.40;99.90;;;;;;1907935;75;21124;-75
2021/01/21 10:41:30;;;;;;;0.10;0.10;;;14.90;99.90;;;;;;1907959;75;21132;-74
2021/01/21 10:43:56;;;;;;;0.65;0.20;;;15.10;99.90;;;;;;1908068;75;21124;-77
2021/01/21 10:46:22;;;;;;;0.40;0.40;;;15.40;99.90;;;;;;1908025;75;21124;-74
2021/01/21 10:48:48;;;;;;;0.65;0.20;;;15.30;99.90;;;;;;1907900;75;21096;-75
2021/01/21 10:51:14;;;;;;;0.20;0.15;;;14.70;99.90;;;;;;1907966;75;21057;-78
2021/01/21 10:53:41;;;;;;;2.67;0.33;;;14.70;99.90;;;;;;1908040;74;21058;-79
2021/01/21 10:56:07;;;;;;;0.13;0.10;;;14.70;99.90;;;;;;1907972;75;21057;-79
2021/01/21 10:58:33;;;;;;;0.88;0.23;;;15.60;99.90;;;;;;1908063;75;21121;-78
2021/01/21 11:00:59;;;;;;;0.60;0.28;;;15.30;99.90;;;;;;1908177;75;21053;-79
2021/01/21 11:03:25;;;;;;;0.15;0.10;;;15.70;99.90;;;;;;1908008;75;21058;-80
2021/01/21 11:05:51;;;;;;;0.10;0.10;;;16.00;99.90;;;;;;1907993;75;21069;-79
2021/01/21 11:08:17;;;;;;;0.30;0.25;;;15.70;99.90;;;;;;1907907;75;21560;-79
2021/01/21 11:10:45;;;;;;;0.15;0.15;;;15.20;99.90;;;;;;1908023;75;21097;-75
2021/01/21 11:13:17;;;;;;;0.20;0.20;;;15.40;99.90;;;;;;1907792;75;21074;-77
2021/01/21 11:15:39;;;;;;;0.30;0.30;;;15.80;99.90;;;;;;1907121;75;21085;-75
2021/01/21 11:18:05;;;;;;;0.95;0.15;;;16.60;99.90;;;;;;1908092;75;21135;-76
2021/01/21 11:20:34;;;;;;;0.20;0.20;;;16.70;99.90;;;;;;1908152;75;21060;-77
2021/01/21 11:22:59;;;;;;;0.45;0.20;;;16.60;99.90;;;;;;1907423;75;21123;-75
2021/01/21 11:25:25;;;;;;;0.40;0.40;;;17.10;99.90;;;;;;1907994;75;21034;-78
2021/01/21 11:27:59;;;;;;;0.37;0.30;;;16.00;99.90;;;;;;1908003;75;21058;-79
2021/01/21 11:30:19;;;;;;;0.28;0.20;;;15.20;99.90;;;;;;1907315;75;21488;-76
2021/01/21 11:32:45;;;;;;;0.17;0.17;;;15.20;99.90;;;;;;1907740;75;21046;-76
2021/01/21 11:35:11;;;;;;;0.45;0.30;;;15.40;99.90;;;;;;1908086;75;21058;-76
2021/01/21 11:37:37;;;;;;;1.82;0.40;;;15.70;99.90;;;;;;1907749;75;21057;-76
2021/01/21 11:40:03;;;;;;;0.30;0.30;;;15.40;99.90;;;;;;1907909;75;21117;-80
2021/01/21 11:42:29;;;;;;;0.60;0.20;;;15.10;99.90;;;;;;1907940;74;21031;-76
2021/01/21 11:44:55;;;;;;;0.70;0.40;;;15.40;99.90;;;;;;1908028;75;21054;-73
2021/01/21 11:47:23;;;;;;;0.30;0.30;;;15.00;99.90;;;;;;1907861;75;21058;-73
2021/01/21 11:49:49;;;;;;;0.20;0.20;;;14.50;99.90;;;;;;1908052;74;21549;-73
2021/01/21 11:52:17;;;;;;;0.35;0.35;;;14.40;99.90;;;;;;1907908;75;21486;-77
2021/01/21 11:54:45;;;;;;;0.30;0.30;;;14.30;99.90;;;;;;1882939;75;21121;-77
2021/01/21 11:57:11;;;;;;;0.90;0.30;;;14.40;99.90;;;;;;1907873;74;21061;-78
2021/01/21 11:59:37;;;;;;;1.50;0.45;;;14.60;99.90;;;;;;1908034;75;21116;-78
2021/01/21 12:02:03;;;;;;;0.55;0.30;;;14.40;99.90;;;;;;1908070;75;21179;-79
2021/01/21 12:04:29;;;;;;;1.95;0.80;;;14.30;99.90;;;;;;1907747;75;21058;-78
2021/01/21 12:06:55;;;;;;;0.20;0.20;;;14.00;99.90;;;;;;1908082;75;21139;-77
2021/01/21 12:09:21;;;;;;;0.13;0.13;;;14.10;99.90;;;;;;1908097;75;21159;-82
2021/01/21 12:11:48;;;;;;;2.92;0.40;;;14.30;99.90;;;;;;1908260;75;21051;-78
2021/01/21 12:14:14;;;;;;;1.32;0.40;;;14.40;99.90;;;;;;1908048;75;21602;-75
2021/01/21 12:16:40;;;;;;;4.47;0.57;;;14.30;99.90;;;;;;1908017;75;21496;-75
2021/01/21 12:19:06;;;;;;;1.15;0.30;;;14.40;99.90;;;;;;1908122;75;21551;-75
2021/01/21 12:21:32;;;;;;;4.28;0.80;;;14.30;99.90;;;;;;1907923;75;21567;-75
2021/01/21 12:23:58;;;;;;;1.22;0.40;;;14.60;99.90;;;;;;1907843;75;21442;-77
2021/01/21 12:26:24;;;;;;;0.08;0.08;;;14.70;99.90;;;;;;1908086;75;21131;-75
2021/01/21 12:28:50;;;;;;;0.78;0.37;;;14.50;99.90;;;;;;1907870;75;21030;-78
2021/01/21 12:31:17;;;;;;;0.53;0.23;;;14.30;99.90;;;;;;1908075;75;21057;-76
2021/01/21 12:33:43;;;;;;;3.52;0.42;;;14.20;99.90;;;;;;1909981;74;21148;-75
2021/01/21 12:36:09;;;;;;;0.10;0.10;;;14.10;99.90;;;;;;1908133;74;21123;-75
2021/01/21 12:38:35;;;;;;;3.92;0.40;;;14.00;99.90;;;;;;1907856;74;21042;-75
2021/01/21 12:41:01;;;;;;;0.82;0.30;;;13.90;99.90;;;;;;1908117;74;21058;-75
2021/01/21 12:43:27;;;;;;;1.05;0.37;;;13.80;99.90;;;;;;1909925;74;21046;-75